Time;durP1;ratioP1;P1;durP2;ratioP2;P2;SDS_P1;SDS_P2;PMS_P1;PMS_P2;Temp;Humidity;BMP_temperature;BMP_pressure;BME280_temperature;BME280_humidity;BME280_pressure;Samples;Min_cycle;Max_cycle;Signal;HPM_P1;HPM_P2
2023/04/10 00:01:42;;;;;;;10.68;6.53;;;;;;;7.44;58.19;94017.84;5062355;28;20031;-83
2023/04/10 00:04:08;;;;;;;9.88;6.50;;;;;;;7.43;57.84;94010.97;5062461;28;20036;-83
2023/04/10 00:06:33;;;;;;;11.23;6.82;;;;;;;7.44;58.13;94007.22;5062625;28;20277;-84
2023/04/10 00:08:59;;;;;;;10.70;6.18;;;;;;;7.44;58.14;94003.81;5062424;28;20025;-83
2023/04/10 00:11:26;;;;;;;14.23;6.78;;;;;;;7.44;57.56;94007.22;5062738;28;20257;-83
2023/04/10 00:13:52;;;;;;;7.80;4.68;;;;;;;7.45;57.03;94002.75;5062558;28;20032;-83
2023/04/10 00:16:17;;;;;;;10.40;4.65;;;;;;;7.44;56.17;93996.63;5062429;28;20021;-83
2023/04/10 00:18:43;;;;;;;8.27;4.85;;;;;;;7.47;55.96;93994.47;5062428;28;20052;-83
2023/04/10 00:21:09;;;;;;;7.47;4.82;;;;;;;7.44;55.61;93990.53;5062268;28;20077;-83
2023/04/10 00:23:34;;;;;;;7.43;4.72;;;;;;;7.41;55.41;93999.09;5062125;28;20025;-83
2023/04/10 00:26:00;;;;;;;9.13;5.10;;;;;;;7.38;55.32;94003.09;5062506;28;20028;-83
2023/04/10 00:28:26;;;;;;;8.73;5.00;;;;;;;7.43;55.30;93989.75;5062491;28;20383;-83
2023/04/10 00:30:51;;;;;;;10.00;5.15;;;;;;;7.44;55.33;93991.31;5062565;28;20087;-83
2023/04/10 00:33:17;;;;;;;7.68;5.00;;;;;;;7.43;55.28;93995.06;5062299;28;20109;-83
2023/04/10 00:35:42;;;;;;;8.15;4.82;;;;;;;7.40;55.41;93985.03;5062001;28;20045;-84
2023/04/10 00:38:10;;;;;;;6.70;4.40;;;;;;;7.47;55.19;93989.16;5061030;28;20262;-82
2023/04/10 00:40:36;;;;;;;8.35;4.88;;;;;;;7.47;54.94;93979.38;5062056;28;20020;-82
2023/04/10 00:43:01;;;;;;;8.65;4.72;;;;;;;7.46;55.13;93977.00;5061013;28;20350;-82
2023/04/10 00:45:27;;;;;;;8.65;4.90;;;;;;;7.49;55.16;93982.50;5061941;28;20092;-82
2023/04/10 00:47:53;;;;;;;8.80;5.07;;;;;;;7.51;55.55;93982.22;5062111;28;20067;-84
2023/04/10 00:50:21;;;;;;;7.85;5.00;;;;;;;7.52;55.48;93983.78;5062097;28;20027;-83
2023/04/10 00:52:47;;;;;;;10.02;5.60;;;;;;;7.48;55.76;93980.16;5062018;28;20035;-82
2023/04/10 00:55:15;;;;;;;8.38;5.28;;;;;;;7.48;56.15;93986.22;5064485;28;20016;-83
2023/04/10 00:57:47;;;;;;;7.93;4.93;;;;;;;7.47;56.06;93979.38;5065522;28;20044;-83
2023/04/10 01:00:14;;;;;;;9.30;5.55;;;;;;;7.44;55.79;93977.28;5064339;28;20025;-83
2023/04/10 01:02:40;;;;;;;8.00;4.55;;;;;;;7.42;55.40;93966.97;5065637;28;20052;-82
2023/04/10 01:05:07;;;;;;;8.95;4.75;;;;;;;7.44;54.91;93975.41;5065464;28;20032;-82
2023/04/10 01:07:57;;;;;;;7.05;4.22;;;;;;;7.45;54.30;93973.56;5064439;28;20048;-84
2023/04/10 01:10:27;;;;;;;8.35;5.15;;;;;;;7.43;54.43;93970.41;5064372;28;20316;-83
2023/04/10 01:12:55;;;;;;;8.48;5.00;;;;;;;7.47;53.94;93967.94;5065518;28;20092;-83
2023/04/10 01:15:27;;;;;;;6.93;4.43;;;;;;;7.46;53.78;93967.16;5065457;28;20013;-83
2023/04/10 01:18:15;;;;;;;7.28;4.65;;;;;;;7.46;53.93;93971.69;5065340;28;20029;-83
2023/04/10 01:20:41;;;;;;;8.77;4.60;;;;;;;7.41;54.13;93970.69;5065296;28;20031;-83
2023/04/10 01:23:28;;;;;;;8.18;5.07;;;;;;;7.42;54.70;93966.19;5064972;28;20264;-83
2023/04/10 01:26:07;;;;;;;7.18;4.65;;;;;;;7.42;54.74;93974.13;5064099;28;20025;-83
2023/04/10 01:28:56;;;;;;;11.25;4.78;;;;;;;7.39;55.48;93972.84;5064694;28;20034;-83
2023/04/10 01:31:27;;;;;;;7.85;5.10;;;;;;;7.40;55.09;93966.47;5064177;28;20037;-83
2023/04/10 01:34:01;;;;;;;6.95;4.43;;;;;;;7.36;55.04;93965.47;5065003;28;20023;-83
2023/04/10 01:36:33;;;;;;;9.60;5.15;;;;;;;7.36;55.14;93965.47;5063843;28;20025;-82
2023/04/10 01:38:59;;;;;;;8.68;4.90;;;;;;;7.38;55.00;93967.84;5064920;28;20046;-82
2023/04/10 01:41:26;;;;;;;8.68;4.85;;;;;;;7.41;55.31;93962.75;5063714;28;20135;-83
2023/04/10 01:43:53;;;;;;;9.90;6.32;;;;;;;7.42;55.35;93961.66;5064725;28;20070;-82
2023/04/10 01:46:21;;;;;;;6.78;4.43;;;;;;;7.42;55.82;93961.66;5064821;28;20028;-83
2023/04/10 01:48:48;;;;;;;9.25;4.50;;;;;;;7.44;55.46;93970.09;5064738;28;20024;-83
2023/04/10 01:51:15;;;;;;;7.85;4.65;;;;;;;7.46;55.65;93971.69;5064450;28;20196;-83
2023/04/10 01:53:42;;;;;;;6.22;4.15;;;;;;;7.46;55.82;93961.09;5064612;28;20013;-83
2023/04/10 01:56:08;;;;;;;6.60;4.60;;;;;;;7.45;56.05;93970.91;5064390;28;20058;-83
2023/04/10 01:58:35;;;;;;;7.43;4.38;;;;;;;7.46;56.33;93967.16;5064626;28;20020;-84
2023/04/10 02:01:00;;;;;;;7.25;4.47;;;;;;;7.50;56.39;93970.03;5063384;28;20377;-83
2023/04/10 02:03:26;;;;;;;7.72;3.80;;;;;;;7.53;56.40;93969.44;5063058;28;20021;-83
2023/04/10 02:06:10;;;;;;;6.03;3.92;;;;;;;7.57;56.25;93965.13;5063464;28;20097;-84
2023/04/10 02:08:47;;;;;;;7.13;4.40;;;;;;;7.58;56.45;93969.38;5064307;28;20024;-84
2023/04/10 02:11:24;;;;;;;9.60;4.22;;;;;;;7.57;56.60;93967.78;5064254;28;20024;-84
2023/04/10 02:13:52;;;;;;;9.85;4.95;;;;;;;7.57;56.72;93963.28;5064118;28;20070;-83
2023/04/10 02:16:21;;;;;;;7.85;4.93;;;;;;;7.58;56.89;93964.84;5062889;28;20033;-83
2023/04/10 02:18:48;;;;;;;7.90;4.78;;;;;;;7.61;57.16;93963.47;5064049;28;20017;-83
2023/04/10 02:21:14;;;;;;;8.25;4.50;;;;;;;7.63;57.06;93956.81;5063980;28;20055;-83
2023/04/10 02:23:40;;;;;;;8.10;4.40;;;;;;;7.63;57.08;93945.41;5063943;28;20024;-83
2023/04/10 02:26:08;;;;;;;6.55;4.10;;;;;;;7.67;57.53;93948.25;5063886;28;20017;-82
2023/04/10 02:28:36;;;;;;;6.97;4.78;;;;;;;7.71;57.25;93951.91;5063908;28;20035;-82
2023/04/10 02:31:06;;;;;;;7.82;4.43;;;;;;;7.69;57.19;93938.13;5063783;28;20021;-82
2023/04/10 02:33:31;;;;;;;6.00;4.03;;;;;;;7.70;57.45;93935.19;5064035;28;20024;-82
2023/04/10 02:35:58;;;;;;;7.05;4.20;;;;;;;7.74;57.23;93922.94;5063992;28;20366;-83
2023/04/10 02:38:24;;;;;;;8.75;4.68;;;;;;;7.75;57.36;93923.72;5062681;28;20311;-84
2023/04/10 02:40:49;;;;;;;8.23;5.68;;;;;;;7.78;57.42;93915.19;5063551;28;20027;-84
2023/04/10 02:43:15;;;;;;;9.70;5.32;;;;;;;7.79;57.41;93922.03;5063707;28;20315;-83
2023/04/10 02:45:40;;;;;;;9.05;4.82;;;;;;;7.80;57.59;93915.66;5063483;28;20099;-83
2023/04/10 02:48:06;;;;;;;6.63;4.47;;;;;;;7.80;57.56;93918.31;5063614;28;20043;-82
2023/04/10 02:50:31;;;;;;;7.22;4.32;;;;;;;7.83;57.64;93912.41;5063441;28;20021;-82
2023/04/10 02:52:57;;;;;;;8.18;4.40;;;;;;;7.86;57.50;93909.19;5063802;28;20058;-82
2023/04/10 02:55:22;;;;;;;6.53;4.40;;;;;;;7.88;57.57;93911.56;5063493;28;20091;-82
2023/04/10 02:57:48;;;;;;;6.40;4.53;;;;;;;7.89;57.70;93899.84;5063098;28;20053;-83
2023/04/10 03:00:13;;;;;;;8.85;4.57;;;;;;;7.90;57.47;93912.81;5063399;28;20032;-83
2023/04/10 03:02:39;;;;;;;7.47;4.65;;;;;;;7.86;57.24;93897.75;5063461;28;20324;-83
2023/04/10 03:05:05;;;;;;;6.63;4.43;;;;;;;7.88;56.95;93904.38;5063265;28;20051;-83
2023/04/10 03:07:31;;;;;;;7.07;4.25;;;;;;;7.88;56.41;93903.59;5063247;28;20025;-85
2023/04/10 03:09:56;;;;;;;7.35;4.15;;;;;;;7.86;56.31;93903.88;5063354;28;20032;-84
2023/04/10 03:12:22;;;;;;;7.30;4.90;;;;;;;7.90;56.28;93912.03;5063023;28;20021;-85
2023/04/10 03:14:47;;;;;;;6.47;3.58;;;;;;;7.90;56.11;93915.47;5063009;28;20025;-84
2023/04/10 03:17:13;;;;;;;6.03;3.75;;;;;;;7.92;56.06;93909.88;5061816;28;20198;-85
2023/04/10 03:19:38;;;;;;;8.27;4.65;;;;;;;7.93;55.89;93906.91;5063109;28;20074;-84
2023/04/10 03:22:04;;;;;;;10.00;4.20;;;;;;;7.93;55.28;93900.81;5061796;28;20021;-83
2023/04/10 03:24:29;;;;;;;5.80;3.60;;;;;;;7.94;54.93;93911.16;5062743;28;20021;-84
2023/04/10 03:26:55;;;;;;;6.43;4.22;;;;;;;7.97;54.75;93910.53;5063077;28;20016;-84
2023/04/10 03:29:21;;;;;;;6.95;3.90;;;;;;;7.98;54.90;93909.47;5062868;28;20021;-83
2023/04/10 03:31:46;;;;;;;7.07;4.18;;;;;;;7.95;55.01;93914.59;5062894;28;20027;-83
2023/04/10 03:34:12;;;;;;;6.95;4.25;;;;;;;7.94;55.11;93907.72;5062896;28;20017;-83
2023/04/10 03:36:37;;;;;;;6.28;4.07;;;;;;;7.90;55.11;93912.81;5062828;28;20032;-83
2023/04/10 03:39:03;;;;;;;6.85;3.97;;;;;;;7.91;55.38;93919.69;5062600;28;20021;-84
2023/04/10 03:41:28;;;;;;;6.97;4.07;;;;;;;7.88;55.43;93914.97;5062866;28;20070;-83
2023/04/10 03:43:54;;;;;;;8.48;5.22;;;;;;;7.84;55.95;93914.78;5061530;28;20096;-83
2023/04/10 03:46:21;;;;;;;7.88;5.35;;;;;;;7.82;55.83;93914.28;5062680;28;20434;-83
2023/04/10 03:48:48;;;;;;;11.38;5.20;;;;;;;7.80;55.92;93915.66;5062670;28;20021;-83
2023/04/10 03:51:14;;;;;;;10.50;5.95;;;;;;;7.77;56.33;93919.66;5062554;28;20031;-83
2023/04/10 03:53:40;;;;;;;10.27;5.60;;;;;;;7.77;56.56;93919.66;5062741;28;20028;-83
2023/04/10 03:56:06;;;;;;;9.98;5.30;;;;;;;7.67;56.90;93919.84;5062404;28;20045;-83
2023/04/10 03:58:31;;;;;;;10.40;4.53;;;;;;;7.59;57.28;93929.28;5062563;28;20049;-83
2023/04/10 04:00:57;;;;;;;7.45;5.03;;;;;;;7.62;57.32;93930.56;5062824;28;20342;-83
2023/04/10 04:03:23;;;;;;;13.43;5.70;;;;;;;7.60;57.28;93938.81;5062481;28;20092;-83
2023/04/10 04:05:49;;;;;;;10.00;5.18;;;;;;;7.59;57.62;93939.09;5062522;28;20024;-84
2023/04/10 04:08:15;;;;;;;20.73;5.93;;;;;;;7.57;58.23;93936.75;5062608;28;20274;-84
2023/04/10 04:10:40;;;;;;;15.77;6.38;;;;;;;7.52;58.25;93944.78;5062407;28;20017;-83
2023/04/10 04:13:06;;;;;;;11.18;6.40;;;;;;;7.56;58.09;93947.66;5062453;28;20028;-83
2023/04/10 04:15:31;;;;;;;10.45;5.95;;;;;;;7.52;58.22;93952.75;5061298;28;20063;-83
2023/04/10 04:17:56;;;;;;;15.95;6.43;;;;;;;7.51;58.52;93947.72;5062552;28;20096;-83
2023/04/10 04:20:22;;;;;;;11.45;6.28;;;;;;;7.43;59.13;93957.94;5062515;28;20025;-83
2023/04/10 04:22:47;;;;;;;14.73;7.68;;;;;;;7.45;59.23;93955.00;5062667;28;20319;-84
2023/04/10 04:25:13;;;;;;;17.23;8.63;;;;;;;7.48;59.33;93956.28;5062420;28;20025;-83
2023/04/10 04:27:38;;;;;;;18.55;9.13;;;;;;;7.50;59.67;93954.13;5061414;28;20036;-83
2023/04/10 04:30:05;;;;;;;15.10;8.13;;;;;;;7.52;59.87;93955.41;5064648;28;20016;-84
2023/04/10 04:32:30;;;;;;;13.38;7.50;;;;;;;7.55;60.01;93956.69;5066566;28;20031;-84
2023/04/10 04:34:56;;;;;;;13.32;7.22;;;;;;;7.52;60.26;93960.72;5066529;28;20215;-84
2023/04/10 04:37:21;;;;;;;10.95;6.07;;;;;;;7.52;60.37;93958.06;5066146;28;20020;-83
2023/04/10 04:39:47;;;;;;;11.98;6.30;;;;;;;7.53;60.40;93962.28;5066183;28;20058;-84
2023/04/10 04:42:12;;;;;;;14.20;6.30;;;;;;;7.58;60.28;93959.53;5066019;28;20338;-84
2023/04/10 04:44:38;;;;;;;9.57;6.15;;;;;;;7.63;59.97;93963.97;5066182;28;20079;-82
2023/04/10 04:47:03;;;;;;;13.93;5.97;;;;;;;7.70;59.63;93964.38;5066124;28;20017;-82
2023/04/10 04:49:29;;;;;;;12.63;6.38;;;;;;;7.78;59.26;93961.06;5066344;28;20017;-83
2023/04/10 04:51:54;;;;;;;15.20;5.85;;;;;;;7.84;58.77;93962.53;5065655;28;20020;-83
2023/04/10 04:54:19;;;;;;;9.57;5.53;;;;;;;7.85;58.48;93963.31;5065820;28;20029;-83
2023/04/10 04:56:45;;;;;;;8.75;5.03;;;;;;;7.92;57.62;93966.41;5065254;28;20045;-83
2023/04/10 04:59:10;;;;;;;10.20;5.03;;;;;;;7.97;57.83;93962.84;5065873;28;20096;-83
2023/04/10 05:01:36;;;;;;;9.68;4.97;;;;;;;7.99;57.68;93973.97;5065817;28;20092;-83
2023/04/10 05:04:02;;;;;;;12.82;5.40;;;;;;;8.02;57.73;93973.38;5065574;28;20017;-83
2023/04/10 05:06:28;;;;;;;10.82;6.07;;;;;;;8.07;58.00;93975.94;5065719;28;20016;-83
2023/04/10 05:08:53;;;;;;;10.25;5.30;;;;;;;8.11;57.53;93979.56;5065522;28;20087;-83
2023/04/10 05:11:19;;;;;;;13.27;5.50;;;;;;;8.15;57.17;93980.56;5065594;28;20077;-83
2023/04/10 05:13:44;;;;;;;11.13;5.97;;;;;;;8.22;57.28;93978.31;5065452;28;20124;-83
2023/04/10 05:16:10;;;;;;;17.98;7.60;;;;;;;8.29;57.16;93979.78;5064305;28;20021;-83
2023/04/10 05:18:35;;;;;;;20.40;8.07;;;;;;;8.33;57.16;93978.13;5065483;28;20032;-83
2023/04/10 05:21:01;;;;;;;23.52;9.93;;;;;;;8.35;57.08;93975.97;5065380;28;20021;-83
2023/04/10 05:23:26;;;;;;;18.15;6.65;;;;;;;8.38;56.93;93967.38;5065160;28;20079;-82
2023/04/10 05:25:52;;;;;;;11.70;5.13;;;;;;;8.43;56.37;93983.25;5065106;28;20221;-81
2023/04/10 05:28:17;;;;;;;7.68;4.97;;;;;;;8.43;56.24;93977.94;5064924;28;20039;-81
2023/04/10 05:30:42;;;;;;;9.18;5.40;;;;;;;8.42;56.26;93977.13;5065134;28;20025;-81
2023/04/10 05:33:08;;;;;;;13.02;6.97;;;;;;;8.46;56.48;93982.66;5065121;28;20257;-80
2023/04/10 05:35:33;;;;;;;11.20;5.70;;;;;;;8.50;56.96;93978.31;5064787;28;20027;-81
2023/04/10 05:37:59;;;;;;;11.88;5.97;;;;;;;8.53;56.80;93972.44;5064981;28;20079;-83
2023/04/10 05:40:25;;;;;;;8.70;4.90;;;;;;;8.55;56.47;93980.88;5064961;28;20033;-82
2023/04/10 05:42:51;;;;;;;19.20;5.65;;;;;;;8.57;56.77;93978.72;5065056;28;20032;-86
2023/04/10 05:45:17;;;;;;;9.68;5.63;;;;;;;8.59;56.66;93976.56;5063764;28;20033;-81
2023/04/10 05:47:43;;;;;;;11.25;6.03;;;;;;;8.62;57.00;93975.94;5063497;28;20035;-81
2023/04/10 05:50:09;;;;;;;12.63;7.10;;;;;;;8.71;57.05;93984.03;5064706;28;20316;-80
2023/04/10 05:52:34;;;;;;;13.65;7.82;;;;;;;8.77;57.42;93982.03;5064864;28;20070;-80
2023/04/10 05:55:00;;;;;;;15.43;7.25;;;;;;;8.83;57.36;93983.50;5064763;28;20029;-80
2023/04/10 05:57:25;;;;;;;11.43;6.70;;;;;;;8.87;57.60;93983.69;5064348;28;20060;-79
2023/04/10 05:59:50;;;;;;;12.23;7.53;;;;;;;8.93;57.40;93980.63;5064549;28;20029;-79
2023/04/10 06:02:16;;;;;;;12.60;7.50;;;;;;;8.97;57.34;93983.47;5063290;28;20028;-80
2023/04/10 06:04:42;;;;;;;16.33;7.97;;;;;;;9.06;57.51;93988.84;5064696;28;20226;-80
2023/04/10 06:07:07;;;;;;;15.10;8.25;;;;;;;9.12;57.66;93992.97;5064437;28;20063;-81
2023/04/10 06:09:32;;;;;;;16.27;8.15;;;;;;;9.19;58.01;93988.03;5064174;28;20127;-80
2023/04/10 06:11:58;;;;;;;17.75;7.53;;;;;;;9.25;58.02;93992.16;5064449;28;20027;-80
2023/04/10 06:14:23;;;;;;;16.17;7.60;;;;;;;9.34;57.61;93989.56;5064214;28;20082;-79
2023/04/10 06:16:49;;;;;;;13.88;7.68;;;;;;;9.38;57.55;93987.88;5064155;28;20021;-79
2023/04/10 06:19:14;;;;;;;14.27;8.52;;;;;;;9.50;57.54;93985.44;5064234;28;20019;-79
2023/04/10 06:21:39;;;;;;;14.68;7.75;;;;;;;9.57;57.22;93982.38;5064103;28;20020;-78
2023/04/10 06:24:05;;;;;;;12.70;7.53;;;;;;;9.68;56.79;93981.03;5063822;28;20016;-74
2023/04/10 06:26:30;;;;;;;16.13;8.32;;;;;;;9.69;56.24;93987.13;5063842;28;20020;-73
2023/04/10 06:28:56;;;;;;;18.35;8.55;;;;;;;9.77;56.23;93981.06;5064000;28;20027;-74
2023/04/10 06:31:21;;;;;;;12.63;7.85;;;;;;;9.84;55.98;93990.22;5063798;28;20224;-75
2023/04/10 06:33:48;;;;;;;13.52;7.82;;;;;;;9.96;55.87;93988.88;5063623;28;20013;-74
2023/04/10 06:36:13;;;;;;;14.60;8.63;;;;;;;10.01;55.34;93976.22;5063711;28;20017;-75
2023/04/10 06:38:39;;;;;;;14.20;7.97;;;;;;;10.10;55.18;93978.13;5063600;28;20023;-76
2023/04/10 06:41:05;;;;;;;12.60;7.32;;;;;;;10.12;54.32;93984.72;5063688;28;20070;-74
2023/04/10 06:43:33;;;;;;;13.25;8.15;;;;;;;10.17;54.64;93981.91;5063307;28;20023;-75
2023/04/10 06:45:59;;;;;;;17.83;8.40;;;;;;;10.29;54.43;93993.88;5063633;28;20089;-75
2023/04/10 06:48:24;;;;;;;13.15;8.10;;;;;;;10.38;54.05;93992.03;5063574;28;20075;-76
2023/04/10 06:50:50;;;;;;;16.65;7.85;;;;;;;10.47;53.96;93982.22;5063232;28;20040;-75
2023/04/10 06:53:15;;;;;;;13.10;7.60;;;;;;;10.56;53.27;93985.72;5062755;28;20059;-76
2023/04/10 06:55:41;;;;;;;13.65;8.10;;;;;;;10.68;52.78;93981.66;5063334;28;20016;-78
2023/04/10 06:58:06;;;;;;;14.35;7.75;;;;;;;10.68;52.62;93989.63;5063344;28;20311;-78
2023/04/10 07:00:31;;;;;;;11.18;7.47;;;;;;;10.64;52.35;93997.47;5063361;28;20084;-80
2023/04/10 07:02:57;;;;;;;13.80;8.27;;;;;;;10.69;51.89;93994.66;5063548;28;20027;-79
2023/04/10 07:05:22;;;;;;;17.15;8.20;;;;;;;10.78;52.59;94002.69;5062888;28;20323;-79
2023/04/10 07:07:49;;;;;;;18.42;9.13;;;;;;;10.87;52.02;94000.84;5063124;28;20017;-78
2023/04/10 07:10:15;;;;;;;14.55;8.68;;;;;;;10.91;51.53;94001.78;5061996;28;20037;-78
2023/04/10 07:12:40;;;;;;;15.13;8.90;;;;;;;10.93;50.92;94001.44;5062799;28;20027;-77
2023/04/10 07:15:07;;;;;;;17.92;9.25;;;;;;;10.91;50.93;93993.78;5063115;28;20020;-77
2023/04/10 07:17:32;;;;;;;23.60;9.20;;;;;;;10.93;50.73;93993.44;5063016;28;20040;-76
2023/04/10 07:19:58;;;;;;;14.18;7.82;;;;;;;10.97;51.27;93994.41;5063110;28;20311;-76
2023/04/10 07:22:23;;;;;;;13.45;8.52;;;;;;;10.98;51.35;93994.09;5062889;28;20043;-79
2023/04/10 07:24:49;;;;;;;18.35;8.55;;;;;;;11.04;51.47;93997.41;5062837;28;20024;-77
2023/04/10 07:27:15;;;;;;;17.92;9.60;;;;;;;11.02;50.75;93997.69;5063001;28;20086;-78
2023/04/10 07:29:41;;;;;;;19.63;7.63;;;;;;;10.98;51.09;93996.75;5062901;28;20021;-78
2023/04/10 07:32:19;;;;;;;14.52;8.15;;;;;;;10.96;51.06;94001.63;5062679;28;20276;-78
2023/04/10 07:34:47;;;;;;;12.63;8.60;;;;;;;10.94;50.57;94000.38;5062925;28;20078;-76
2023/04/10 07:37:13;;;;;;;15.20;9.30;;;;;;;10.93;50.46;94004.91;5062964;28;20092;-75
2023/04/10 07:39:38;;;;;;;16.05;8.65;;;;;;;10.92;50.40;94000.66;5062998;28;20032;-79
2023/04/10 07:42:04;;;;;;;18.85;9.07;;;;;;;10.92;50.18;93998.00;5062812;28;20021;-77
2023/04/10 07:44:30;;;;;;;14.65;8.43;;;;;;;10.95;50.50;94002.72;5061630;28;20319;-78
2023/04/10 07:46:59;;;;;;;15.07;9.25;;;;;;;10.97;50.41;94011.19;5062814;28;20031;-78
2023/04/10 07:49:24;;;;;;;16.30;8.55;;;;;;;11.06;50.33;94018.44;5062695;28;20071;-77
2023/04/10 07:51:49;;;;;;;20.65;10.00;;;;;;;11.08;50.01;94005.56;5062557;28;20594;-77
2023/04/10 07:54:15;;;;;;;18.48;9.68;;;;;;;11.15;50.02;94005.88;5062708;28;20092;-77
2023/04/10 07:56:40;;;;;;;15.32;8.85;;;;;;;11.27;49.51;94006.03;5062368;28;20045;-73
2023/04/10 07:59:06;;;;;;;14.95;9.25;;;;;;;11.34;49.30;94006.38;5062536;28;20032;-75
2023/04/10 08:01:32;;;;;;;15.30;9.48;;;;;;;11.43;48.83;94004.47;5062703;28;20092;-76
2023/04/10 08:03:57;;;;;;;23.23;9.43;;;;;;;11.54;48.84;94009.50;5063191;28;20025;-75
2023/04/10 08:06:23;;;;;;;24.98;9.38;;;;;;;11.59;48.96;94007.47;5066835;28;20071;-76
2023/04/10 08:08:50;;;;;;;16.88;9.55;;;;;;;11.63;48.59;94003.06;5066724;28;20231;-75
2023/04/10 08:11:29;;;;;;;19.70;10.27;;;;;;;11.73;48.63;93999.28;5066612;28;20215;-74
2023/04/10 08:13:57;;;;;;;18.83;9.90;;;;;;;11.77;48.29;94000.22;5066674;28;20021;-75
2023/04/10 08:16:24;;;;;;;16.10;9.30;;;;;;;11.83;48.25;94006.97;5066711;28;20100;-75
2023/04/10 08:18:54;;;;;;;18.23;9.88;;;;;;;11.88;47.88;93999.88;5066496;28;20029;-76
2023/04/10 08:21:24;;;;;;;22.55;11.25;;;;;;;11.81;48.06;94003.03;5066372;28;20021;-75
2023/04/10 08:23:50;;;;;;;16.58;10.10;;;;;;;11.81;47.79;94008.38;5066454;28;20025;-75
2023/04/10 08:26:16;;;;;;;15.95;9.88;;;;;;;11.79;48.23;94003.34;5066528;28;20079;-76
2023/04/10 08:28:46;;;;;;;16.13;10.32;;;;;;;11.87;47.83;94003.66;5066467;28;20224;-75
2023/04/10 08:31:12;;;;;;;13.27;8.82;;;;;;;11.94;47.93;93994.09;5066055;28;20327;-75
2023/04/10 08:33:37;;;;;;;16.50;8.68;;;;;;;11.92;47.18;93996.28;5066464;28;20025;-76
2023/04/10 08:36:04;;;;;;;12.90;8.40;;;;;;;12.02;47.30;94000.50;5066317;28;20252;-75
2023/04/10 08:38:30;;;;;;;15.98;8.50;;;;;;;12.03;47.29;94005.53;5066357;28;20086;-73
2023/04/10 08:40:56;;;;;;;14.93;9.38;;;;;;;11.93;46.79;93999.75;5066122;28;20347;-73
2023/04/10 08:43:21;;;;;;;15.30;8.25;;;;;;;11.97;46.71;93998.03;5065952;28;20119;-75
2023/04/10 08:45:47;;;;;;;16.63;8.52;;;;;;;12.05;47.17;94002.56;5065949;28;20037;-75
2023/04/10 08:48:15;;;;;;;13.10;7.65;;;;;;;12.08;46.98;94003.81;5064446;28;20021;-77
2023/04/10 08:50:44;;;;;;;18.48;9.93;;;;;;;12.03;47.04;93996.75;5064320;28;20037;-75
2023/04/10 08:53:19;;;;;;;14.32;9.02;;;;;;;12.05;47.28;93994.53;5064215;28;20020;-77
2023/04/10 08:55:45;;;;;;;13.60;8.98;;;;;;;12.13;46.84;93984.91;5064039;28;20088;-78
2023/04/10 08:58:12;;;;;;;17.58;9.65;;;;;;;12.25;46.92;93993.03;5062760;28;20052;-76
2023/04/10 09:00:38;;;;;;;16.17;9.50;;;;;;;12.30;46.49;93990.22;5062930;28;20035;-76
2023/04/10 09:03:07;;;;;;;15.30;9.40;;;;;;;12.30;46.66;93986.75;5063918;28;20279;-76
2023/04/10 09:05:34;;;;;;;17.95;8.60;;;;;;;12.29;46.71;93993.19;5064040;28;20390;-75
2023/04/10 09:08:00;;;;;;;13.90;7.85;;;;;;;12.13;46.79;93992.94;5064601;28;20049;-76
2023/04/10 09:10:25;;;;;;;20.92;7.85;;;;;;;12.15;46.75;93994.22;5064472;28;20032;-76
2023/04/10 09:12:51;;;;;;;15.13;8.60;;;;;;;12.13;46.85;93992.94;5064419;28;20039;-76
2023/04/10 09:15:17;;;;;;;17.13;8.57;;;;;;;12.11;47.24;93981.78;5063955;28;20036;-77
2023/04/10 09:18:04;;;;;;;12.48;8.43;;;;;;;12.08;47.08;93983.22;5064122;28;20048;-76
2023/04/10 09:20:31;;;;;;;11.95;7.95;;;;;;;11.99;47.25;93983.25;5064467;28;20025;-76
2023/04/10 09:22:57;;;;;;;12.30;8.10;;;;;;;12.09;47.90;93986.66;5064503;28;20032;-76
2023/04/10 09:25:27;;;;;;;19.55;8.02;;;;;;;12.16;47.07;93985.06;5064208;28;20315;-77
2023/04/10 09:28:02;;;;;;;13.50;8.27;;;;;;;12.16;46.94;93971.72;5064190;28;20025;-77
2023/04/10 09:30:41;;;;;;;14.98;9.57;;;;;;;12.29;46.54;93966.47;5064226;28;20017;-77
2023/04/10 09:33:26;;;;;;;14.45;9.55;;;;;;;12.39;46.56;93971.47;5063044;28;20288;-78
2023/04/10 09:35:52;;;;;;;14.25;8.05;;;;;;;12.44;46.33;93971.31;5063946;28;20071;-77
2023/04/10 09:38:20;;;;;;;13.05;8.43;;;;;;;12.58;46.38;93977.22;5063925;28;20200;-77
2023/04/10 09:40:47;;;;;;;15.90;8.32;;;;;;;12.67;45.54;93968.34;5063833;28;20036;-77
2023/04/10 09:43:20;;;;;;;12.77;7.45;;;;;;;12.59;44.78;93973.41;5063737;28;20025;-77
2023/04/10 09:45:51;;;;;;;10.98;7.43;;;;;;;12.52;45.13;93964.34;5063836;28;20096;-76
2023/04/10 09:48:17;;;;;;;14.52;8.30;;;;;;;12.57;45.49;93967.59;5063801;28;20067;-76
2023/04/10 09:50:42;;;;;;;11.38;7.32;;;;;;;12.55;46.02;93969.03;5063923;28;20107;-76
2023/04/10 09:53:11;;;;;;;14.65;8.27;;;;;;;12.44;46.25;93971.31;5063618;28;20021;-76
2023/04/10 09:55:36;;;;;;;18.92;8.82;;;;;;;12.47;46.41;93967.19;5063892;28;20100;-76
2023/04/10 09:58:04;;;;;;;15.32;8.57;;;;;;;12.52;46.72;93964.34;5019247;28;1295011;-76
2023/04/10 10:00:30;;;;;;;10.98;7.90;;;;;;;12.48;46.07;93972.22;5064840;28;20064;-76
2023/04/10 10:02:58;;;;;;;16.02;7.50;;;;;;;12.47;45.49;93972.53;5064583;28;20099;-76
2023/04/10 10:05:29;;;;;;;15.93;9.25;;;;;;;12.42;45.46;93957.47;5064281;28;20043;-76
2023/04/10 10:07:56;;;;;;;11.63;7.82;;;;;;;12.38;46.19;93967.25;5064409;28;20020;-74
2023/04/10 10:10:22;;;;;;;11.57;7.25;;;;;;;12.47;45.89;93951.94;5064300;28;20275;-76
2023/04/10 10:13:00;;;;;;;12.75;7.85;;;;;;;12.58;45.56;93953.13;5064294;28;20079;-76
2023/04/10 10:15:37;;;;;;;13.02;8.60;;;;;;;12.70;45.35;93943.63;5064340;28;20044;-75
2023/04/10 10:18:25;;;;;;;15.25;8.23;;;;;;;12.80;45.21;93951.28;5064230;28;20028;-78
2023/04/10 10:20:52;;;;;;;12.63;7.75;;;;;;;12.91;45.14;93944.44;5063868;28;20200;-78
2023/04/10 10:23:18;;;;;;;14.50;7.30;;;;;;;13.00;44.73;93934.44;5064145;28;20025;-75
2023/04/10 10:25:45;;;;;;;11.88;7.53;;;;;;;13.01;43.44;93935.25;5063911;28;20343;-78
2023/04/10 10:28:12;;;;;;;15.32;8.25;;;;;;;13.10;43.55;93937.88;5063376;28;20088;-77
2023/04/10 10:30:38;;;;;;;11.68;7.57;;;;;;;13.12;43.94;93936.41;5063967;28;20188;-76
2023/04/10 10:33:06;;;;;;;13.57;6.88;;;;;;;13.24;43.49;93933.03;5063753;28;20032;-78
2023/04/10 10:35:34;;;;;;;13.30;7.65;;;;;;;13.37;42.21;93934.69;5063973;28;20080;-75
2023/04/10 10:38:02;;;;;;;9.45;5.90;;;;;;;13.48;42.10;93932.38;5062643;28;20224;-76
2023/04/10 10:40:48;;;;;;;11.85;6.32;;;;;;;13.53;41.65;93915.31;5063841;28;20261;-76
2023/04/10 10:43:35;;;;;;;14.43;7.60;;;;;;;13.52;40.94;93919.13;5063806;28;20036;-76
2023/04/10 10:46:19;;;;;;;11.93;7.20;;;;;;;13.47;40.70;93911.28;5063695;28;20028;-78
2023/04/10 10:48:57;;;;;;;9.18;6.72;;;;;;;13.58;40.75;93909.78;5063561;28;20284;-77
2023/04/10 10:51:41;;;;;;;11.57;5.68;;;;;;;13.73;40.73;93901.09;5063626;28;20267;-77
2023/04/10 10:54:26;;;;;;;9.90;6.25;;;;;;;13.88;39.63;93901.56;5062214;28;20044;-78
2023/04/10 10:56:51;;;;;;;12.10;6.07;;;;;;;13.87;39.80;93898.13;5063321;28;20065;-78
2023/04/10 10:59:17;;;;;;;12.82;6.15;;;;;;;13.88;39.76;93898.88;5063303;28;20025;-77
2023/04/10 11:02:20;;;;;;;14.50;7.53;;;;;;;13.80;40.40;93893.31;5063539;28;20227;-78
2023/04/10 11:04:47;;;;;;;10.73;6.93;;;;;;;13.86;40.51;93891.22;5063342;28;20205;-77
2023/04/10 11:07:15;;;;;;;13.60;7.38;;;;;;;13.99;40.45;93886.63;5063433;28;20062;-77
2023/04/10 11:09:49;;;;;;;12.82;6.97;;;;;;;14.18;40.71;93884.19;5063108;28;20047;-77
2023/04/10 11:12:18;;;;;;;13.02;6.57;;;;;;;14.45;39.27;93877.38;5063270;28;20017;-78
2023/04/10 11:14:55;;;;;;;13.90;6.43;;;;;;;14.73;39.02;93878.59;5063072;28;20211;-76
2023/04/10 11:17:45;;;;;;;10.75;6.43;;;;;;;14.93;38.27;93877.66;5063101;28;20379;-79
2023/04/10 11:20:11;;;;;;;10.10;5.95;;;;;;;14.91;36.81;93873.75;5063039;28;20066;-79
2023/04/10 11:23:07;;;;;;;13.38;7.43;;;;;;;14.88;38.22;93861.81;5062977;28;20026;-76
2023/04/10 11:25:52;;;;;;;14.00;7.45;;;;;;;14.73;38.17;93867.88;5062983;28;20025;-82
2023/04/10 11:28:36;;;;;;;18.60;8.93;;;;;;;14.62;38.18;93862.97;5063224;28;20323;-79
2023/04/10 11:31:21;;;;;;;17.60;7.45;;;;;;;14.61;37.98;93863.28;5063327;28;20023;-79
2023/04/10 11:34:06;;;;;;;10.50;6.30;;;;;;;14.63;37.71;93859.19;5062848;28;20089;-78
2023/04/10 11:36:33;;;;;;;13.30;7.00;;;;;;;14.66;37.98;93863.06;5062941;28;20043;-76